createdAt,value
2023-03-14T00:00:56.932Z,99770.06
2023-03-14T00:01:59.434Z,99770.06
2023-03-14T00:03:05.559Z,99777.36
2023-03-14T00:04:17.604Z,99764.83
2023-03-14T00:05:21.367Z,99767.75
2023-03-14T00:06:27.088Z,99768.38
2023-03-14T00:07:29.296Z,99764.83
2023-03-14T00:08:31.560Z,99759.62
2023-03-14T00:09:43.443Z,99768.59
2023-03-14T00:10:51.277Z,99761.48
2023-03-14T00:11:54.451Z,99760.64
2023-03-14T00:12:58.146Z,99753.57
2023-03-14T00:14:03.676Z,99758.99
2023-03-14T00:15:08.440Z,99751.89
2023-03-14T00:16:12.798Z,99751.05
2023-03-14T00:17:26.287Z,99752.95
2023-03-14T00:18:31.232Z,99750.23
2023-03-14T00:19:33.531Z,99751.05
2023-03-14T00:20:39.415Z,99750.23
2023-03-14T00:21:46.135Z,99747.52
2023-03-14T00:22:48.363Z,99752.95
2023-03-14T00:23:53.752Z,99740.41
2023-03-14T00:25:12.127Z,99747.70
2023-03-14T00:26:21.263Z,99734.15
2023-03-14T00:27:27.178Z,99738.73
2023-03-14T00:28:30.398Z,99746.02
2023-03-14T00:29:35.678Z,99740.81
2023-03-14T00:30:40.495Z,99742.50
2023-03-14T00:31:47.539Z,99747.08
2023-03-14T00:34:15.108Z,99733.97
2023-03-14T00:35:21.345Z,99733.09
2023-03-14T00:36:27.710Z,99729.53
2023-03-14T00:37:32.555Z,99738.51
2023-03-14T00:38:38.128Z,99730.38
2023-03-14T00:39:42.196Z,99733.92
2023-03-14T00:40:50.000Z,99729.53
2023-03-14T00:41:56.592Z,99719.53
2023-03-14T00:43:02.542Z,99712.42
2023-03-14T00:44:07.515Z,99717.03
2023-03-14T00:45:14.385Z,99712.42
2023-03-14T00:46:23.115Z,99707.00
2023-03-14T00:47:26.247Z,99715.13
2023-03-14T00:49:46.062Z,99710.55
2023-03-14T00:50:48.940Z,99707.22
2023-03-14T00:51:53.052Z,99696.37
2023-03-14T00:52:58.263Z,99707.22
2023-03-14T00:54:03.731Z,99698.20
2023-03-14T00:55:08.685Z,99702.64
2023-03-14T00:56:16.880Z,99693.66
2023-03-14T00:57:20.351Z,99700.92
2023-03-14T00:58:28.422Z,99694.66
2023-03-14T00:59:35.296Z,99700.92
2023-03-14T01:00:43.026Z,99701.33
2023-03-14T01:01:47.155Z,99693.00
2023-03-14T01:02:49.770Z,99697.59
2023-03-14T01:03:58.567Z,99692.16
2023-03-14T01:05:01.079Z,99687.77
2023-03-14T01:06:15.544Z,99689.64
2023-03-14T01:08:27.984Z,99686.38
2023-03-14T01:09:30.336Z,99685.46
2023-03-14T01:10:32.919Z,99683.59
2023-03-14T01:11:36.470Z,99675.45
2023-03-14T01:12:38.492Z,99675.45
2023-03-14T01:13:40.849Z,99673.81
2023-03-14T01:14:42.920Z,99692.56
2023-03-14T01:15:44.881Z,99686.30
2023-03-14T01:16:46.869Z,99685.46
2023-03-14T01:17:49.038Z,99691.73
2023-03-14T01:18:52.785Z,99694.66
2023-03-14T01:19:55.036Z,99680.26
2023-03-14T01:20:57.815Z,99690.08
2023-03-14T01:22:00.451Z,99685.68
2023-03-14T01:23:02.510Z,99682.13
2023-03-14T01:24:06.832Z,99684.84
2023-03-14T01:25:14.575Z,99682.13
2023-03-14T01:26:20.103Z,99682.13
2023-03-14T01:27:22.409Z,99682.13
2023-03-14T01:28:26.317Z,99691.10
2023-03-14T01:29:29.365Z,99691.94
2023-03-14T01:30:31.787Z,99699.23
2023-03-14T01:31:34.136Z,99700.91
2023-03-14T01:32:36.576Z,99707.98
2023-03-14T01:33:39.306Z,99712.38
2023-03-14T01:34:41.812Z,99707.59
2023-03-14T01:35:44.512Z,99714.70
2023-03-14T01:36:46.667Z,99708.21
2023-03-14T01:37:49.795Z,99708.21
2023-03-14T01:38:54.303Z,99705.50
2023-03-14T01:39:57.136Z,99708.06
2023-03-14T01:40:59.754Z,99704.51
2023-03-14T01:42:03.586Z,99711.39
2023-03-14T01:43:09.667Z,99703.27
2023-03-14T01:44:12.493Z,99703.27
2023-03-14T01:45:51.919Z,99706.81
2023-03-14T01:46:54.978Z,99703.08
2023-03-14T01:47:57.134Z,99705.57
2023-03-14T01:50:32.019Z,99700.40
2023-03-14T01:51:41.235Z,99706.59
2023-03-14T01:52:48.040Z,99708.28
2023-03-14T01:53:51.598Z,99708.28
2023-03-14T01:56:14.707Z,99706.66
2023-03-14T01:57:36.250Z,99707.44
2023-03-14T01:58:40.659Z,99700.15
2023-03-14T02:01:05.024Z,99693.91
2023-03-14T02:02:10.444Z,99693.70
2023-03-14T02:03:15.295Z,99706.20
2023-03-14T02:04:18.498Z,99693.48
2023-03-14T02:05:24.071Z,99693.30
2023-03-14T02:06:32.015Z,99685.16
2023-03-14T02:07:50.522Z,99679.73
2023-03-14T02:08:55.318Z,99682.45
2023-03-14T02:10:00.058Z,99681.39
2023-03-14T02:11:05.605Z,99683.07
2023-03-14T02:12:26.668Z,99679.52
2023-03-14T02:13:34.372Z,99679.52
2023-03-14T02:14:38.773Z,99682.02
2023-03-14T02:17:02.609Z,99681.63
2023-03-14T02:18:23.628Z,99683.25
2023-03-14T02:19:49.244Z,99683.07
2023-03-14T02:21:28.210Z,99678.48
2023-03-14T02:22:30.943Z,99676.40
2023-03-14T02:23:47.625Z,99683.69
2023-03-14T02:24:53.939Z,99678.27
2023-03-14T02:25:59.213Z,99680.98
2023-03-14T02:27:08.162Z,99683.69
2023-03-14T02:28:12.968Z,99685.38
2023-03-14T02:29:18.142Z,99685.38
2023-03-14T02:30:27.154Z,99689.12
2023-03-14T02:31:29.709Z,99684.53
2023-03-14T02:32:34.047Z,99695.16
2023-03-14T02:33:38.129Z,99684.53
2023-03-14T02:34:42.335Z,99693.52
2023-03-14T02:35:57.419Z,99693.52
2023-03-14T02:37:01.722Z,99694.32
2023-03-14T02:39:42.555Z,99685.59
2023-03-14T02:40:45.955Z,99695.38
2023-03-14T02:41:48.135Z,99699.96
2023-03-14T02:42:51.478Z,99698.94
2023-03-14T02:43:53.817Z,99689.73
2023-03-14T02:45:11.534Z,99695.16
2023-03-14T02:47:30.970Z,99691.67
2023-03-14T02:51:16.678Z,99686.84
2023-03-14T02:52:20.584Z,99689.34
2023-03-14T02:53:26.157Z,99693.52
2023-03-14T02:54:30.455Z,99694.32
2023-03-14T02:55:33.889Z,99694.32
2023-03-14T02:56:37.778Z,99691.42
2023-03-14T02:57:40.381Z,99692.45
2023-03-14T02:58:42.534Z,99691.42
2023-03-14T02:59:49.575Z,99690.39
2023-03-14T03:00:54.055Z,99698.53
2023-03-14T03:02:01.452Z,99701.24
2023-03-14T03:03:04.118Z,99690.39
2023-03-14T03:04:06.710Z,99698.53
2023-03-14T03:05:09.255Z,99697.47
2023-03-14T03:06:12.181Z,99700.18
2023-03-14T03:07:14.442Z,99700.18
2023-03-14T03:08:18.621Z,99693.73
2023-03-14T03:09:21.116Z,99696.44
2023-03-14T03:10:23.628Z,99695.38
2023-03-14T03:11:26.522Z,99698.09
2023-03-14T03:12:29.138Z,99700.80
2023-03-14T03:13:31.188Z,99698.09
2023-03-14T03:14:33.872Z,99694.35
2023-03-14T03:15:40.207Z,99696.22
2023-03-14T03:16:42.373Z,99696.03
2023-03-14T03:17:45.244Z,99686.22
2023-03-14T03:18:47.437Z,99687.90
2023-03-14T03:19:49.588Z,99691.45
2023-03-14T03:20:53.547Z,99690.61
2023-03-14T03:21:55.675Z,99691.45
2023-03-14T03:22:59.662Z,99682.47
2023-03-14T03:24:01.887Z,99689.55
2023-03-14T03:25:06.664Z,99678.70
2023-03-14T03:26:10.321Z,99684.12
2023-03-14T03:27:13.060Z,99683.09
2023-03-14T03:28:15.333Z,99671.41
2023-03-14T03:29:18.133Z,99672.25
2023-03-14T03:30:21.663Z,99674.96
2023-03-14T03:31:24.277Z,99677.67
2023-03-14T03:32:27.600Z,99676.83
2023-03-14T03:33:29.850Z,99678.52
2023-03-14T03:34:32.030Z,99673.09
2023-03-14T03:35:34.212Z,99673.09
2023-03-14T03:36:36.656Z,99667.66
2023-03-14T03:37:39.422Z,99681.23
2023-03-14T03:38:42.053Z,99677.45
2023-03-14T03:39:45.008Z,99671.22
2023-03-14T03:40:48.290Z,99672.03
2023-03-14T03:41:51.903Z,99671.22
2023-03-14T03:42:54.924Z,99667.45
2023-03-14T03:43:57.611Z,99669.31
2023-03-14T03:45:01.543Z,99665.58
2023-03-14T03:46:06.716Z,99665.80
2023-03-14T03:47:09.571Z,99664.73
2023-03-14T03:48:11.595Z,99665.58
2023-03-14T03:49:14.785Z,99678.11
2023-03-14T03:50:17.115Z,99670.78
2023-03-14T03:51:19.406Z,99672.68
2023-03-14T03:52:23.385Z,99676.20
2023-03-14T03:53:33.121Z,99678.11
2023-03-14T03:54:30.551Z,99676.20
2023-03-14T03:55:33.977Z,99674.33
2023-03-14T03:56:36.289Z,99678.92
2023-03-14T03:57:38.529Z,99688.73
2023-03-14T03:58:41.993Z,99682.28
2023-03-14T03:59:44.242Z,99678.73
2023-03-14T04:00:46.699Z,99672.47
2023-03-14T04:01:50.356Z,99671.63
2023-03-14T04:02:53.277Z,99672.47
2023-03-14T04:03:55.734Z,99675.17
2023-03-14T04:04:58.264Z,99673.30
2023-03-14T04:06:06.039Z,99674.98
2023-03-14T04:07:10.088Z,99671.43
2023-03-14T04:08:12.574Z,99674.14
2023-03-14T04:09:15.826Z,99673.30
2023-03-14T04:10:22.637Z,99675.17
2023-03-14T04:11:26.718Z,99674.14
2023-03-14T04:12:33.790Z,99679.57
2023-03-14T04:13:38.155Z,99674.14
2023-03-14T04:14:40.227Z,99674.98
2023-03-14T04:15:47.401Z,99678.73
2023-03-14T04:16:57.673Z,99684.99
2023-03-14T04:17:59.928Z,99682.28
2023-03-14T04:19:03.220Z,99683.13
2023-03-14T04:20:09.968Z,99681.22
2023-03-14T04:21:12.270Z,99678.51
2023-03-14T04:22:16.746Z,99682.06
2023-03-14T04:23:24.906Z,99677.48
2023-03-14T04:24:27.161Z,99676.64
2023-03-14T04:25:31.316Z,99675.61
2023-03-14T04:26:35.404Z,99679.16
2023-03-14T04:27:37.851Z,99674.77
2023-03-14T04:28:42.237Z,99676.45
2023-03-14T04:29:45.585Z,99684.37
2023-03-14T04:30:49.909Z,99679.16
2023-03-14T04:31:54.039Z,99681.66
2023-03-14T04:32:56.151Z,99673.73
2023-03-14T04:34:00.415Z,99677.26
2023-03-14T04:35:08.535Z,99674.55
2023-03-14T04:36:11.750Z,99675.39
2023-03-14T04:37:14.146Z,99669.12
2023-03-14T04:38:18.059Z,99676.23
2023-03-14T04:39:21.874Z,99677.07
2023-03-14T04:40:26.523Z,99675.39
2023-03-14T04:41:30.915Z,99672.67
2023-03-14T04:42:34.788Z,99674.36
2023-03-14T04:43:38.199Z,99677.91
2023-03-14T04:44:46.389Z,99675.20
2023-03-14T04:45:49.435Z,99663.51
2023-03-14T04:46:52.753Z,99672.48
2023-03-14T04:47:54.990Z,99665.19
2023-03-14T04:48:58.751Z,99661.64
2023-03-14T04:50:01.051Z,99661.64
2023-03-14T04:51:05.669Z,99665.19
2023-03-14T04:52:10.099Z,99662.48
2023-03-14T04:53:14.035Z,99667.69
2023-03-14T04:54:18.460Z,99651.63
2023-03-14T04:55:24.382Z,99658.70
2023-03-14T04:56:27.521Z,99655.99
2023-03-14T04:57:29.576Z,99652.25
2023-03-14T04:58:33.665Z,99649.53
2023-03-14T04:59:36.674Z,99653.09
2023-03-14T05:00:41.549Z,99648.47
2023-03-14T05:01:45.521Z,99648.47
2023-03-14T05:02:53.359Z,99643.05
2023-03-14T05:04:06.304Z,99645.76
2023-03-14T05:05:28.257Z,99640.34
2023-03-14T05:06:49.698Z,99644.73
2023-03-14T05:07:59.425Z,99640.14
2023-03-14T05:09:05.185Z,99628.45
2023-03-14T05:11:21.413Z,99622.41
2023-03-14T05:12:37.933Z,99617.17
2023-03-14T05:14:53.550Z,99613.66
2023-03-14T05:17:16.815Z,99630.95
2023-03-14T05:18:20.849Z,99631.80
2023-03-14T05:19:36.047Z,99628.86
2023-03-14T05:22:08.269Z,99617.20
2023-03-14T05:23:29.131Z,99621.79
2023-03-14T05:25:50.729Z,99618.02
2023-03-14T05:26:55.992Z,99622.59
2023-03-14T05:28:00.057Z,99629.70
2023-03-14T05:29:20.621Z,99615.11
2023-03-14T05:30:27.507Z,99628.45
2023-03-14T05:32:42.568Z,99624.28
2023-03-14T05:35:20.742Z,99626.99
2023-03-14T05:36:30.951Z,99641.39
2023-03-14T05:37:33.141Z,99636.59
2023-03-14T05:38:54.787Z,99635.75
2023-03-14T05:40:06.752Z,99652.67
2023-03-14T05:42:32.443Z,99646.61
2023-03-14T05:43:37.041Z,99641.39
2023-03-14T05:44:42.294Z,99655.58
2023-03-14T05:47:02.171Z,99655.81
2023-03-14T05:48:05.661Z,99654.73
2023-03-14T05:49:22.215Z,99664.56
2023-03-14T05:50:36.576Z,99659.98
2023-03-14T05:51:40.708Z,99656.20
2023-03-14T05:52:48.404Z,99663.53
2023-03-14T05:54:09.025Z,99665.18
2023-03-14T05:55:15.990Z,99670.61
2023-03-14T05:56:20.029Z,99666.86
2023-03-14T05:58:34.186Z,99675.23
2023-03-14T05:59:38.196Z,99675.41
2023-03-14T06:01:04.226Z,99673.54
2023-03-14T06:02:08.237Z,99672.48
2023-03-14T06:03:12.591Z,99673.31
2023-03-14T06:04:16.985Z,99675.84
2023-03-14T06:05:20.680Z,99677.72
2023-03-14T06:06:23.204Z,99668.73
2023-03-14T06:07:25.922Z,99683.98
2023-03-14T06:08:28.645Z,99681.27
2023-03-14T06:09:30.832Z,99684.80
2023-03-14T06:10:35.873Z,99688.34
2023-03-14T06:11:39.213Z,99687.50
2023-03-14T06:12:42.026Z,99695.64
2023-03-14T06:13:44.083Z,99696.48
2023-03-14T06:14:47.499Z,99691.06
2023-03-14T06:15:51.580Z,99697.33
2023-03-14T06:16:53.877Z,99703.59
2023-03-14T06:17:57.525Z,99699.01
2023-03-14T06:19:00.129Z,99688.16
2023-03-14T06:20:05.489Z,99693.58
2023-03-14T06:21:08.210Z,99699.01
2023-03-14T06:22:11.933Z,99706.93
2023-03-14T06:23:16.929Z,99703.37
2023-03-14T06:24:19.143Z,99695.23
2023-03-14T06:25:23.006Z,99692.74
2023-03-14T06:26:27.257Z,99691.67
2023-03-14T06:27:29.770Z,99689.81
2023-03-14T06:28:33.827Z,99692.52
2023-03-14T06:29:37.321Z,99685.22
2023-03-14T06:30:40.889Z,99685.22
2023-03-14T06:31:44.405Z,99685.22
2023-03-14T06:32:48.181Z,99677.92
2023-03-14T06:33:50.711Z,99684.38
2023-03-14T06:34:54.147Z,99677.92
2023-03-14T06:35:56.760Z,99676.89
2023-03-14T06:36:59.429Z,99676.89
2023-03-14T06:38:02.442Z,99668.75
2023-03-14T06:39:06.109Z,99658.71
2023-03-14T06:40:11.947Z,99661.42
2023-03-14T06:41:16.373Z,99656.00
2023-03-14T06:42:21.901Z,99661.42
2023-03-14T06:43:25.944Z,99654.12
2023-03-14T06:44:29.293Z,99652.25
2023-03-14T06:45:31.521Z,99664.79
2023-03-14T06:46:34.659Z,99653.09
2023-03-14T06:47:37.998Z,99659.36
2023-03-14T06:48:40.479Z,99659.36
2023-03-14T06:49:43.150Z,99654.75
2023-03-14T06:50:46.079Z,99661.02
2023-03-14T06:51:50.533Z,99660.17
2023-03-14T06:52:52.690Z,99661.85
2023-03-14T06:53:56.766Z,99656.42
2023-03-14T06:55:00.791Z,99652.03
2023-03-14T06:56:04.480Z,99646.41
2023-03-14T06:57:07.710Z,99650.16
2023-03-14T06:58:10.258Z,99654.55
2023-03-14T06:59:14.387Z,99646.41
2023-03-14T07:00:18.835Z,99643.70
2023-03-14T07:01:27.675Z,99648.28
2023-03-14T07:02:42.294Z,99651.84
2023-03-14T07:03:36.625Z,99642.67
2023-03-14T07:04:40.567Z,99650.81
2023-03-14T07:05:43.459Z,99639.95
2023-03-14T07:06:46.461Z,99634.53
2023-03-14T07:07:48.672Z,99632.63
2023-03-14T07:08:52.888Z,99642.67
2023-03-14T07:09:55.764Z,99636.18
2023-03-14T07:10:58.328Z,99627.20
2023-03-14T07:12:01.417Z,99632.63
2023-03-14T07:13:04.652Z,99639.73
2023-03-14T07:14:08.783Z,99619.90
2023-03-14T07:15:20.902Z,99622.61
2023-03-14T07:16:16.856Z,99613.44
2023-03-14T07:17:19.147Z,99613.44
2023-03-14T07:18:22.523Z,99609.66
2023-03-14T07:19:26.197Z,99614.28
2023-03-14T07:20:29.443Z,99608.85
2023-03-14T07:21:32.777Z,99608.02
2023-03-14T07:22:35.254Z,99598.80
2023-03-14T07:23:37.383Z,99598.80
2023-03-14T07:24:40.608Z,99605.91
2023-03-14T07:25:44.010Z,99598.80
2023-03-14T07:26:46.738Z,99597.77
2023-03-14T07:27:48.958Z,99599.65
2023-03-14T07:28:51.588Z,99604.88
2023-03-14T07:29:55.890Z,99604.88
2023-03-14T07:30:59.055Z,99603.20
2023-03-14T07:32:03.211Z,99599.65
2023-03-14T07:33:06.797Z,99606.76
2023-03-14T07:34:09.027Z,99597.55
2023-03-14T07:35:13.974Z,99596.74
2023-03-14T07:36:18.388Z,99592.34
2023-03-14T07:37:21.213Z,99594.22
2023-03-14T07:38:23.411Z,99595.91
2023-03-14T07:40:38.466Z,99591.72
2023-03-14T07:41:43.658Z,99591.92
2023-03-14T07:43:00.938Z,99594.45
2023-03-14T07:44:04.944Z,99593.38
2023-03-14T07:45:08.823Z,99600.48
2023-03-14T07:46:10.911Z,99599.65
2023-03-14T07:47:14.357Z,99593.38
2023-03-14T07:48:16.701Z,99602.17
2023-03-14T07:49:18.877Z,99596.09
2023-03-14T07:50:21.934Z,99601.33
2023-03-14T07:51:24.553Z,99593.19
2023-03-14T07:52:26.831Z,99583.17
2023-03-14T07:53:28.894Z,99586.70
2023-03-14T07:54:31.061Z,99597.55
2023-03-14T07:55:33.657Z,99594.84
2023-03-14T07:56:37.237Z,99592.97
2023-03-14T07:57:39.465Z,99588.60
2023-03-14T07:58:41.404Z,99593.19
2023-03-14T07:59:43.526Z,99588.60
2023-03-14T08:00:46.037Z,99586.70
2023-03-14T08:01:48.925Z,99592.13
2023-03-14T08:02:55.357Z,99587.54
2023-03-14T08:04:00.942Z,99572.32
2023-03-14T08:05:04.636Z,99566.05
2023-03-14T08:06:08.556Z,99577.10
2023-03-14T08:07:14.146Z,99577.10
2023-03-14T08:08:16.893Z,99572.93
2023-03-14T08:09:22.950Z,99565.02
2023-03-14T08:10:27.726Z,99566.88
2023-03-14T08:11:33.907Z,99562.49
2023-03-14T08:12:36.377Z,99565.43
2023-03-14T08:13:44.064Z,99565.66
2023-03-14T08:14:51.260Z,99572.11
2023-03-14T08:15:55.378Z,99563.36
2023-03-14T08:17:00.123Z,99561.67
2023-03-14T08:18:05.681Z,99568.13
2023-03-14T08:19:08.299Z,99553.77
2023-03-14T08:20:11.502Z,99553.11
2023-03-14T08:21:16.535Z,99560.44
2023-03-14T08:22:20.470Z,99558.77
2023-03-14T08:23:23.265Z,99577.94
2023-03-14T08:24:27.881Z,99580.66
2023-03-14T08:25:30.239Z,99588.80
2023-03-14T08:26:36.724Z,99579.00
2023-03-14T08:27:43.356Z,99572.97
2023-03-14T08:28:49.865Z,99584.63
2023-03-14T08:29:53.242Z,99586.72
2023-03-14T08:30:58.808Z,99582.13
2023-03-14T08:32:06.700Z,99578.58
2023-03-14T08:33:11.910Z,99584.22
2023-03-14T08:34:26.559Z,99600.50
2023-03-14T08:35:34.438Z,99582.55
2023-03-14T08:36:40.478Z,99584.42
2023-03-14T08:37:48.701Z,99582.55
2023-03-14T08:38:52.715Z,99597.14
2023-03-14T08:39:56.943Z,99580.86
2023-03-14T08:41:02.784Z,99551.25
2023-03-14T08:42:14.175Z,99558.55
2023-03-14T08:43:22.985Z,99568.55
2023-03-14T08:44:28.266Z,99567.72
2023-03-14T08:45:31.476Z,99568.55
2023-03-14T08:46:34.550Z,99563.35
2023-03-14T08:47:37.993Z,99566.06
2023-03-14T08:48:44.771Z,99568.78
2023-03-14T08:49:46.942Z,99563.55
2023-03-14T08:50:49.556Z,99573.59
2023-03-14T08:51:52.664Z,99563.55
2023-03-14T08:52:56.499Z,99557.31
2023-03-14T08:54:44.714Z,99569.61
2023-03-14T08:55:47.794Z,99550.83
2023-03-14T08:56:51.072Z,99560.64
2023-03-14T08:57:54.534Z,99561.27
2023-03-14T08:58:57.399Z,99564.20
2023-03-14T09:00:02.345Z,99563.35
2023-03-14T09:01:16.418Z,99567.09
2023-03-14T09:02:23.007Z,99567.94
2023-03-14T09:03:27.013Z,99550.83
2023-03-14T09:04:30.997Z,99561.89
2023-03-14T09:05:39.745Z,99544.78
2023-03-14T09:06:47.802Z,99560.21
2023-03-14T09:07:52.290Z,99547.49
2023-03-14T09:09:03.565Z,99559.37
2023-03-14T09:10:14.400Z,99564.80
2023-03-14T09:11:16.605Z,99563.98
2023-03-14T09:12:18.690Z,99555.02
2023-03-14T09:13:23.123Z,99549.59
2023-03-14T09:14:28.429Z,99553.33
2023-03-14T09:15:36.526Z,99563.34
2023-03-14T09:16:42.479Z,99561.47
2023-03-14T09:17:51.740Z,99565.20
2023-03-14T09:18:55.145Z,99571.47
2023-03-14T09:20:03.759Z,99561.69
2023-03-14T09:21:09.790Z,99572.53
2023-03-14T09:22:16.374Z,99563.56
2023-03-14T09:23:22.654Z,99563.56
2023-03-14T09:24:25.279Z,99551.87
2023-03-14T09:25:30.896Z,99559.17
2023-03-14T09:26:35.000Z,99557.52
2023-03-14T09:27:38.492Z,99572.73
2023-03-14T09:28:41.798Z,99559.39
2023-03-14T09:29:44.901Z,99549.38
2023-03-14T09:30:52.581Z,99555.62
2023-03-14T09:33:07.494Z,99552.50
2023-03-14T09:34:10.193Z,99554.38
2023-03-14T09:35:12.612Z,99549.98
2023-03-14T09:36:16.610Z,99555.22
2023-03-14T09:37:21.642Z,99563.13
2023-03-14T09:38:30.027Z,99560.42
2023-03-14T09:39:33.146Z,99549.58
2023-03-14T09:40:37.554Z,99539.56
2023-03-14T09:41:44.629Z,99553.31
2023-03-14T09:42:49.365Z,99553.13
2023-03-14T09:43:55.316Z,99556.67
2023-03-14T09:45:04.426Z,99555.84
2023-03-14T09:46:10.000Z,99553.13
2023-03-14T09:47:15.309Z,99550.41
2023-03-14T09:48:27.961Z,99544.98
2023-03-14T09:49:45.135Z,99544.16
2023-03-14T09:52:16.586Z,99536.23
2023-03-14T09:55:54.598Z,99536.65
2023-03-14T09:56:57.101Z,99531.23
2023-03-14T10:00:43.279Z,99534.14
2023-03-14T10:01:47.397Z,99545.09
2023-03-14T10:02:58.230Z,99542.36
2023-03-14T10:05:17.430Z,99540.48
2023-03-14T10:06:20.811Z,99548.25
2023-03-14T10:07:32.954Z,99553.48
2023-03-14T10:08:42.256Z,99550.99
2023-03-14T10:09:48.777Z,99542.23
2023-03-14T10:10:51.451Z,99550.88
2023-03-14T10:11:58.453Z,99548.19
2023-03-14T10:13:24.987Z,99550.02
2023-03-14T10:14:36.489Z,99561.03
2023-03-14T10:15:40.230Z,99548.38
2023-03-14T10:16:45.227Z,99550.47
2023-03-14T10:17:53.618Z,99547.02
2023-03-14T10:19:05.019Z,99544.27
2023-03-14T10:21:40.842Z,99540.97
2023-03-14T10:22:44.104Z,99547.49
2023-03-14T10:23:50.139Z,99534.16
2023-03-14T10:24:58.294Z,99527.59
2023-03-14T10:26:21.328Z,99528.55
2023-03-14T10:27:30.657Z,99530.14
2023-03-14T10:28:47.942Z,99542.47
2023-03-14T10:29:59.679Z,99540.53
2023-03-14T10:31:05.083Z,99534.81
2023-03-14T10:32:10.912Z,99523.05
2023-03-14T10:33:30.420Z,99518.31
2023-03-14T10:34:39.612Z,99517.09
2023-03-14T10:35:41.969Z,99516.41
2023-03-14T10:36:46.517Z,99518.70
2023-03-14T10:37:58.078Z,99506.48
2023-03-14T10:40:44.301Z,99506.02
2023-03-14T10:42:19.941Z,99515.02
2023-03-14T10:44:58.932Z,99512.27
2023-03-14T10:46:14.365Z,99500.73
2023-03-14T10:47:24.130Z,99502.55
2023-03-14T10:48:45.242Z,99504.38
2023-03-14T10:49:49.799Z,99509.89
2023-03-14T10:51:02.064Z,99492.03
2023-03-14T10:52:17.003Z,99500.18
2023-03-14T10:53:27.456Z,99499.33
2023-03-14T10:54:35.958Z,99501.19
2023-03-14T10:55:46.067Z,99499.33
2023-03-14T10:58:36.609Z,99500.81
2023-03-14T10:59:46.945Z,99489.27
2023-03-14T11:01:05.014Z,99501.62
2023-03-14T11:04:06.430Z,99505.61
2023-03-14T11:06:38.896Z,99499.88
2023-03-14T11:09:09.443Z,99489.36
2023-03-14T11:10:33.721Z,99495.89
2023-03-14T11:11:44.972Z,99482.23
2023-03-14T11:14:40.984Z,99490.42
2023-03-14T11:16:19.003Z,99484.61
2023-03-14T11:17:42.526Z,99485.29
2023-03-14T11:19:17.619Z,99496.53
2023-03-14T11:20:33.534Z,99474.30
2023-03-14T11:23:28.978Z,99471.95
2023-03-14T11:24:52.161Z,99484.99
2023-03-14T11:27:20.882Z,99468.44
2023-03-14T11:28:42.635Z,99474.30
2023-03-14T11:30:05.542Z,99478.66
2023-03-14T11:31:28.817Z,99471.16
2023-03-14T11:32:46.148Z,99465.69
2023-03-14T11:35:22.148Z,99463.00
2023-03-14T11:36:28.062Z,99473.41
2023-03-14T11:37:47.262Z,99472.09
2023-03-14T11:38:59.638Z,99452.39
2023-03-14T11:40:17.978Z,99464.61
2023-03-14T11:41:34.345Z,99460.80
2023-03-14T11:42:45.097Z,99450.95
2023-03-14T11:43:56.664Z,99456.97
2023-03-14T11:45:00.788Z,99459.51
2023-03-14T11:47:30.367Z,99448.41
2023-03-14T11:50:16.627Z,99458.64
2023-03-14T11:51:30.299Z,99453.52
2023-03-14T11:52:46.203Z,99448.72
2023-03-14T11:53:55.129Z,99451.63
2023-03-14T11:56:16.735Z,99423.99
2023-03-14T11:57:21.670Z,99450.31
2023-03-14T11:58:26.893Z,99431.82
2023-03-14T12:01:05.781Z,99438.50
2023-03-14T12:02:33.178Z,99428.72
2023-03-14T12:03:47.941Z,99432.61
2023-03-14T12:05:00.522Z,99447.73
2023-03-14T12:06:22.054Z,99447.42
2023-03-14T12:09:30.631Z,99425.83
2023-03-14T12:12:52.583Z,99430.70
2023-03-14T12:13:54.719Z,99439.80
2023-03-14T12:15:05.254Z,99437.69
2023-03-14T12:17:41.500Z,99421.41
2023-03-14T12:18:43.822Z,99427.84
2023-03-14T12:19:46.316Z,99426.37
2023-03-14T12:22:27.200Z,99427.81
2023-03-14T12:23:50.022Z,99427.95
2023-03-14T12:26:16.011Z,99428.55
2023-03-14T12:27:47.875Z,99432.88
2023-03-14T12:28:59.343Z,99423.36
2023-03-14T12:30:03.884Z,99442.67
2023-03-14T12:31:32.759Z,99416.74
2023-03-14T12:32:35.525Z,99426.45
2023-03-14T12:33:37.839Z,99412.60
2023-03-14T12:34:43.301Z,99417.97
2023-03-14T12:35:49.585Z,99405.45
2023-03-14T12:37:16.775Z,99403.11
2023-03-14T12:38:25.565Z,99416.19
2023-03-14T12:39:40.451Z,99401.58
2023-03-14T12:42:06.039Z,99400.63
2023-03-14T12:44:50.218Z,99406.06
2023-03-14T12:47:42.362Z,99396.80
2023-03-14T12:48:46.960Z,99378.98
2023-03-14T12:49:53.784Z,99392.56
2023-03-14T12:51:25.011Z,99384.42
2023-03-14T12:52:41.615Z,99363.67
2023-03-14T12:54:04.236Z,99395.34
2023-03-14T12:57:11.446Z,99385.94
2023-03-14T13:00:00.959Z,99394.56
2023-03-14T13:01:06.418Z,99392.70
2023-03-14T13:02:12.932Z,99394.25
2023-03-14T13:03:24.600Z,99390.23
2023-03-14T13:04:39.024Z,99388.09
2023-03-14T13:05:35.610Z,99381.38
2023-03-14T13:07:00.996Z,99395.17
2023-03-14T13:08:08.053Z,99397.39
2023-03-14T13:09:35.256Z,99396.06
2023-03-14T13:10:46.544Z,99382.97
2023-03-14T13:11:56.466Z,99374.41
2023-03-14T13:13:17.488Z,99376.64
2023-03-14T13:14:23.527Z,99387.89
2023-03-14T13:17:19.360Z,99373.11
2023-03-14T13:19:50.938Z,99381.52
2023-03-14T13:20:56.646Z,99386.78
2023-03-14T13:22:07.243Z,99381.41
2023-03-14T13:23:30.991Z,99377.91
2023-03-14T13:24:36.093Z,99382.44
2023-03-14T13:25:38.615Z,99385.28
2023-03-14T13:26:44.402Z,99383.63
2023-03-14T13:27:47.900Z,99383.63
2023-03-14T13:28:50.195Z,99374.54
2023-03-14T13:29:52.541Z,99379.91
2023-03-14T13:31:02.385Z,99381.59
2023-03-14T13:32:23.053Z,99378.72
2023-03-14T13:33:25.327Z,99382.91
2023-03-14T13:34:30.610Z,99371.66
2023-03-14T13:36:56.709Z,99364.64
2023-03-14T13:38:11.505Z,99372.91
2023-03-14T13:39:14.785Z,99373.59
2023-03-14T13:40:23.819Z,99356.09
2023-03-14T13:41:27.364Z,99377.44
2023-03-14T13:42:31.059Z,99363.64
2023-03-14T13:43:39.306Z,99371.33
2023-03-14T13:44:42.433Z,99359.02
2023-03-14T13:46:00.241Z,99354.14
2023-03-14T13:47:04.926Z,99356.83
2023-03-14T13:48:10.298Z,99359.70
2023-03-14T13:50:45.943Z,99353.44
2023-03-14T13:51:48.335Z,99358.73
2023-03-14T13:52:57.379Z,99360.58
2023-03-14T13:55:23.063Z,99349.19
2023-03-14T13:59:51.810Z,99340.02
2023-03-14T14:01:03.543Z,99327.33
2023-03-14T14:02:09.686Z,99334.71
2023-03-14T14:03:12.024Z,99332.47
2023-03-14T14:04:17.192Z,99329.52
2023-03-14T14:05:19.575Z,99334.09
2023-03-14T14:06:27.482Z,99328.61
2023-03-14T14:07:30.433Z,99316.38
2023-03-14T14:08:37.357Z,99325.63
2023-03-14T14:09:45.304Z,99329.31
2023-03-14T14:10:48.151Z,99321.44
2023-03-14T14:12:11.425Z,99316.42
2023-03-14T14:13:01.289Z,99314.24
2023-03-14T14:14:06.391Z,99319.31
2023-03-14T14:15:11.913Z,99324.73
2023-03-14T14:16:17.483Z,99327.30
2023-03-14T14:17:23.315Z,99320.59
2023-03-14T14:18:27.373Z,99320.25
2023-03-14T14:19:31.275Z,99318.25
2023-03-14T14:20:36.957Z,99323.31
2023-03-14T14:21:40.061Z,99317.63
2023-03-14T14:22:42.792Z,99314.78
2023-03-14T14:23:47.439Z,99315.13
2023-03-14T14:24:49.974Z,99314.81
2023-03-14T14:25:54.832Z,99312.81
2023-03-14T14:27:27.521Z,99312.34
2023-03-14T14:28:35.324Z,99316.55
2023-03-14T14:29:38.245Z,99304.13
2023-03-14T14:30:41.782Z,99302.82